sensor_id;sensor_type;location;lat;lon;timestamp;pressure;altitude;pressure_sealevel;temperature;humidity
78932;BME280;68331;53.362;55.932;2024-02-16T00:01:20;103411.34;;;-23.97;54.00
78932;BME280;68331;53.362;55.932;2024-02-16T00:03:46;103415.66;;;-23.96;54.19
78932;BME280;68331;53.362;55.932;2024-02-16T00:06:12;103409.16;;;-23.90;54.19
78932;BME280;68331;53.362;55.932;2024-02-16T00:08:38;103417.50;;;-23.95;53.78
78932;BME280;68331;53.362;55.932;2024-02-16T00:11:05;103410.13;;;-24.05;53.97
78932;BME280;68331;53.362;55.932;2024-02-16T00:13:31;103424.59;;;-24.08;54.23
78932;BME280;68331;53.362;55.932;2024-02-16T00:15:58;103423.00;;;-24.07;54.25
78932;BME280;68331;53.362;55.932;2024-02-16T00:18:24;103413.09;;;-24.02;54.36
78932;BME280;68331;53.362;55.932;2024-02-16T00:20:50;103409.56;;;-23.92;54.52
78932;BME280;68331;53.362;55.932;2024-02-16T00:23:16;103415.91;;;-23.94;54.04
78932;BME280;68331;53.362;55.932;2024-02-16T00:25:45;103409.44;;;-24.19;53.78
78932;BME280;68331;53.362;55.932;2024-02-16T00:28:11;103432.53;;;-24.41;54.31
78932;BME280;68331;53.362;55.932;2024-02-16T00:30:37;103420.13;;;-24.51;54.73
78932;BME280;68331;53.362;55.932;2024-02-16T00:33:04;103423.63;;;-24.45;55.38
78932;BME280;68331;53.362;55.932;2024-02-16T00:35:30;103433.25;;;-24.21;55.28
78932;BME280;68331;53.362;55.932;2024-02-16T00:37:59;103433.00;;;-24.07;55.17
78932;BME280;68331;53.362;55.932;2024-02-16T00:40:27;103435.63;;;-23.96;55.28
78932;BME280;68331;53.362;55.932;2024-02-16T00:42:53;103437.28;;;-23.91;55.22
78932;BME280;68331;53.362;55.932;2024-02-16T00:45:19;103432.13;;;-23.87;55.12
78932;BME280;68331;53.362;55.932;2024-02-16T00:47:44;103431.50;;;-23.80;55.71
78932;BME280;68331;53.362;55.932;2024-02-16T00:50:14;103424.63;;;-23.66;55.40
78932;BME280;68331;53.362;55.932;2024-02-16T00:52:41;103418.28;;;-23.64;55.14
78932;BME280;68331;53.362;55.932;2024-02-16T00:55:08;103413.56;;;-23.62;54.52
78932;BME280;68331;53.362;55.932;2024-02-16T00:57:33;103410.94;;;-23.74;54.62
78932;BME280;68331;53.362;55.932;2024-02-16T01:00:00;103422.81;;;-23.88;54.53
78932;BME280;68331;53.362;55.932;2024-02-16T01:02:25;103423.31;;;-23.85;54.81
78932;BME280;68331;53.362;55.932;2024-02-16T01:04:51;103426.09;;;-23.78;55.07
78932;BME280;68331;53.362;55.932;2024-02-16T01:07:18;103439.91;;;-23.80;54.63
78932;BME280;68331;53.362;55.932;2024-02-16T01:09:44;103427.31;;;-23.91;54.57
78932;BME280;68331;53.362;55.932;2024-02-16T01:12:10;103429.53;;;-23.92;54.91
78932;BME280;68331;53.362;55.932;2024-02-16T01:14:35;103427.00;;;-23.98;54.39
78932;BME280;68331;53.362;55.932;2024-02-16T01:17:01;103427.72;;;-24.09;54.49
78932;BME280;68331;53.362;55.932;2024-02-16T01:19:27;103436.66;;;-24.21;54.76
78932;BME280;68331;53.362;55.932;2024-02-16T01:21:53;103442.38;;;-24.31;54.84
78932;BME280;68331;53.362;55.932;2024-02-16T01:24:23;103449.72;;;-24.27;54.70
78932;BME280;68331;53.362;55.932;2024-02-16T01:26:49;103447.63;;;-24.30;54.61
78932;BME280;68331;53.362;55.932;2024-02-16T01:29:16;103461.78;;;-24.40;54.79
78932;BME280;68331;53.362;55.932;2024-02-16T01:31:42;103451.91;;;-24.50;55.03
78932;BME280;68331;53.362;55.932;2024-02-16T01:34:07;103471.47;;;-24.57;55.24
78932;BME280;68331;53.362;55.932;2024-02-16T01:36:33;103467.41;;;-24.56;55.54
78932;BME280;68331;53.362;55.932;2024-02-16T01:38:59;103480.38;;;-24.53;55.37
78932;BME280;68331;53.362;55.932;2024-02-16T01:41:25;103478.56;;;-24.54;55.43
78932;BME280;68331;53.362;55.932;2024-02-16T01:43:54;103467.91;;;-24.53;55.35
78932;BME280;68331;53.362;55.932;2024-02-16T01:46:21;103487.28;;;-24.62;54.96
78932;BME280;68331;53.362;55.932;2024-02-16T01:48:48;103494.31;;;-24.75;55.16
78932;BME280;68331;53.362;55.932;2024-02-16T01:51:16;103495.47;;;-24.73;55.56
78932;BME280;68331;53.362;55.932;2024-02-16T01:53:42;103494.38;;;-24.84;55.03
78932;BME280;68331;53.362;55.932;2024-02-16T01:56:08;103493.09;;;-24.92;55.09
78932;BME280;68331;53.362;55.932;2024-02-16T01:58:34;103500.66;;;-24.86;55.30
78932;BME280;68331;53.362;55.932;2024-02-16T02:01:00;103514.09;;;-24.71;55.24
78932;BME280;68331;53.362;55.932;2024-02-16T02:03:26;103520.28;;;-24.53;54.92
78932;BME280;68331;53.362;55.932;2024-02-16T02:05:52;103523.13;;;-24.46;54.74
78932;BME280;68331;53.362;55.932;2024-02-16T02:08:20;103533.25;;;-24.50;54.45
78932;BME280;68331;53.362;55.932;2024-02-16T02:10:45;103530.31;;;-24.63;54.45
78932;BME280;68331;53.362;55.932;2024-02-16T02:13:11;103533.81;;;-24.72;54.50
78932;BME280;68331;53.362;55.932;2024-02-16T02:15:37;103517.72;;;-24.84;54.63
78932;BME280;68331;53.362;55.932;2024-02-16T02:18:03;103528.19;;;-24.81;54.99
78932;BME280;68331;53.362;55.932;2024-02-16T02:20:29;103523.09;;;-24.86;54.66
78932;BME280;68331;53.362;55.932;2024-02-16T02:22:55;103529.75;;;-25.06;54.90
78932;BME280;68331;53.362;55.932;2024-02-16T02:25:21;103525.91;;;-25.20;54.98
78932;BME280;68331;53.362;55.932;2024-02-16T02:27:47;103525.00;;;-25.30;55.01
78932;BME280;68331;53.362;55.932;2024-02-16T02:30:13;103527.75;;;-25.28;55.24
78932;BME280;68331;53.362;55.932;2024-02-16T02:32:39;103538.66;;;-25.38;54.44
78932;BME280;68331;53.362;55.932;2024-02-16T02:35:05;103528.19;;;-25.41;54.70
78932;BME280;68331;53.362;55.932;2024-02-16T02:37:31;103531.44;;;-25.36;54.40
78932;BME280;68331;53.362;55.932;2024-02-16T02:39:57;103531.22;;;-25.47;54.22
78932;BME280;68331;53.362;55.932;2024-02-16T02:42:23;103535.56;;;-25.56;54.59
78932;BME280;68331;53.362;55.932;2024-02-16T02:44:49;103539.63;;;-25.56;54.43
78932;BME280;68331;53.362;55.932;2024-02-16T02:47:16;103551.69;;;-25.54;54.13
78932;BME280;68331;53.362;55.932;2024-02-16T02:49:45;103550.88;;;-25.58;54.14
78932;BME280;68331;53.362;55.932;2024-02-16T02:52:10;103556.69;;;-25.64;53.94
78932;BME280;68331;53.362;55.932;2024-02-16T02:54:36;103548.59;;;-25.82;53.90
78932;BME280;68331;53.362;55.932;2024-02-16T02:57:03;103556.84;;;-25.87;54.13
78932;BME280;68331;53.362;55.932;2024-02-16T02:59:29;103553.19;;;-25.89;54.13
78932;BME280;68331;53.362;55.932;2024-02-16T03:01:54;103558.56;;;-25.92;54.05
78932;BME280;68331;53.362;55.932;2024-02-16T03:04:20;103553.81;;;-26.00;54.09
78932;BME280;68331;53.362;55.932;2024-02-16T03:06:46;103560.91;;;-26.17;53.84
78932;BME280;68331;53.362;55.932;2024-02-16T03:09:13;103574.50;;;-26.24;54.35
78932;BME280;68331;53.362;55.932;2024-02-16T03:11:39;103572.78;;;-26.29;54.51
78932;BME280;68331;53.362;55.932;2024-02-16T03:14:05;103587.03;;;-26.48;54.56
78932;BME280;68331;53.362;55.932;2024-02-16T03:16:32;103583.09;;;-26.61;54.87
78932;BME280;68331;53.362;55.932;2024-02-16T03:18:58;103580.69;;;-26.75;55.62
78932;BME280;68331;53.362;55.932;2024-02-16T03:21:24;103581.63;;;-26.65;55.60
78932;BME280;68331;53.362;55.932;2024-02-16T03:23:50;103575.88;;;-26.69;55.44
78932;BME280;68331;53.362;55.932;2024-02-16T03:26:16;103569.44;;;-26.83;55.55
78932;BME280;68331;53.362;55.932;2024-02-16T03:28:46;103582.16;;;-26.71;55.89
78932;BME280;68331;53.362;55.932;2024-02-16T03:31:27;103594.25;;;-26.49;55.32
78932;BME280;68331;53.362;55.932;2024-02-16T03:33:54;103592.44;;;-26.50;55.06
78932;BME280;68331;53.362;55.932;2024-02-16T03:36:20;103598.91;;;-26.61;54.41
78932;BME280;68331;53.362;55.932;2024-02-16T03:38:47;103606.69;;;-26.49;55.03
78932;BME280;68331;53.362;55.932;2024-02-16T03:41:19;103614.28;;;-26.34;54.66
78932;BME280;68331;53.362;55.932;2024-02-16T03:43:45;103600.66;;;-26.36;54.06
78932;BME280;68331;53.362;55.932;2024-02-16T03:46:11;103612.16;;;-26.37;53.79
78932;BME280;68331;53.362;55.932;2024-02-16T03:48:38;103605.09;;;-26.39;53.99
78932;BME280;68331;53.362;55.932;2024-02-16T03:51:05;103605.63;;;-26.36;53.85
78932;BME280;68331;53.362;55.932;2024-02-16T03:53:32;103598.69;;;-26.33;54.11
78932;BME280;68331;53.362;55.932;2024-02-16T03:55:58;103613.59;;;-26.33;53.71
78932;BME280;68331;53.362;55.932;2024-02-16T03:58:24;103611.47;;;-26.45;53.72
78932;BME280;68331;53.362;55.932;2024-02-16T04:00:50;103630.84;;;-26.58;54.16
78932;BME280;68331;53.362;55.932;2024-02-16T04:03:16;103621.84;;;-26.48;54.38
78932;BME280;68331;53.362;55.932;2024-02-16T04:05:42;103622.34;;;-26.35;54.57
78932;BME280;68331;53.362;55.932;2024-02-16T04:08:08;103612.97;;;-26.22;54.34
78932;BME280;68331;53.362;55.932;2024-02-16T04:10:34;103627.00;;;-25.94;54.22
78932;BME280;68331;53.362;55.932;2024-02-16T04:13:01;103620.84;;;-25.67;53.86
78932;BME280;68331;53.362;55.932;2024-02-16T04:15:27;103617.03;;;-25.35;53.12
78932;BME280;68331;53.362;55.932;2024-02-16T04:17:53;103614.97;;;-25.03;52.85
78932;BME280;68331;53.362;55.932;2024-02-16T04:20:19;103617.66;;;-24.32;51.61
78932;BME280;68331;53.362;55.932;2024-02-16T04:22:45;103606.81;;;-23.41;50.28
78932;BME280;68331;53.362;55.932;2024-02-16T04:25:11;103604.94;;;-22.69;48.90
78932;BME280;68331;53.362;55.932;2024-02-16T04:27:37;103603.09;;;-22.55;47.94
78932;BME280;68331;53.362;55.932;2024-02-16T04:30:04;103596.78;;;-22.89;48.28
78932;BME280;68331;53.362;55.932;2024-02-16T04:32:31;103604.13;;;-23.21;48.82
78932;BME280;68331;53.362;55.932;2024-02-16T04:34:57;103602.91;;;-23.44;49.50
78932;BME280;68331;53.362;55.932;2024-02-16T04:37:23;103606.13;;;-23.24;50.07
78932;BME280;68331;53.362;55.932;2024-02-16T04:39:49;103618.41;;;-22.84;49.64
78932;BME280;68331;53.362;55.932;2024-02-16T04:42:16;103618.63;;;-22.67;49.77
78932;BME280;68331;53.362;55.932;2024-02-16T04:44:41;103620.44;;;-22.24;49.41
78932;BME280;68331;53.362;55.932;2024-02-16T04:47:07;103600.91;;;-21.57;48.35
78932;BME280;68331;53.362;55.932;2024-02-16T04:49:33;103606.38;;;-21.59;48.16
78932;BME280;68331;53.362;55.932;2024-02-16T04:51:59;103606.66;;;-21.85;48.32
78932;BME280;68331;53.362;55.932;2024-02-16T04:54:25;103611.88;;;-21.83;49.27
78932;BME280;68331;53.362;55.932;2024-02-16T04:56:51;103610.19;;;-21.67;48.98
78932;BME280;68331;53.362;55.932;2024-02-16T04:59:17;103616.56;;;-21.26;48.49
78932;BME280;68331;53.362;55.932;2024-02-16T05:01:43;103613.91;;;-20.56;47.89
78932;BME280;68331;53.362;55.932;2024-02-16T05:04:12;103604.59;;;-20.12;46.39
78932;BME280;68331;53.362;55.932;2024-02-16T05:06:45;103607.09;;;-19.67;45.85
78932;BME280;68331;53.362;55.932;2024-02-16T05:09:12;103611.25;;;-18.98;45.37
78932;BME280;68331;53.362;55.932;2024-02-16T05:11:40;103605.16;;;-18.30;44.20
78932;BME280;68331;53.362;55.932;2024-02-16T05:14:05;103601.28;;;-17.98;43.22
78932;BME280;68331;53.362;55.932;2024-02-16T05:16:31;103591.38;;;-18.21;42.74
78932;BME280;68331;53.362;55.932;2024-02-16T05:18:57;103613.78;;;-18.17;42.56
78932;BME280;68331;53.362;55.932;2024-02-16T05:21:23;103623.88;;;-18.58;42.88
78932;BME280;68331;53.362;55.932;2024-02-16T05:23:49;103629.78;;;-18.11;42.89
78932;BME280;68331;53.362;55.932;2024-02-16T05:26:15;103620.03;;;-17.67;42.16
78932;BME280;68331;53.362;55.932;2024-02-16T05:28:42;103621.78;;;-17.84;41.34
78932;BME280;68331;53.362;55.932;2024-02-16T05:31:15;103624.03;;;-18.50;42.32
78932;BME280;68331;53.362;55.932;2024-02-16T05:33:44;103634.06;;;-18.74;43.08
78932;BME280;68331;53.362;55.932;2024-02-16T05:36:10;103640.06;;;-18.85;43.45
78932;BME280;68331;53.362;55.932;2024-02-16T05:38:37;103626.44;;;-18.69;43.38
78932;BME280;68331;53.362;55.932;2024-02-16T05:41:07;103636.56;;;-18.74;43.29
78932;BME280;68331;53.362;55.932;2024-02-16T05:43:34;103647.81;;;-18.78;43.47
78932;BME280;68331;53.362;55.932;2024-02-16T05:46:00;103653.94;;;-18.30;43.05
78932;BME280;68331;53.362;55.932;2024-02-16T05:48:26;103638.38;;;-17.97;42.05
78932;BME280;68331;53.362;55.932;2024-02-16T05:50:59;103644.72;;;-16.92;41.00
78932;BME280;68331;53.362;55.932;2024-02-16T05:53:27;103642.66;;;-15.01;38.40
78932;BME280;68331;53.362;55.932;2024-02-16T05:55:55;103637.31;;;-13.44;35.26
78932;BME280;68331;53.362;55.932;2024-02-16T05:58:21;103626.84;;;-12.43;33.39
78932;BME280;68331;53.362;55.932;2024-02-16T06:00:48;103633.63;;;-12.01;32.31
78932;BME280;68331;53.362;55.932;2024-02-16T06:03:14;103635.59;;;-12.20;31.77
78932;BME280;68331;53.362;55.932;2024-02-16T06:05:40;103639.25;;;-12.80;32.47
78932;BME280;68331;53.362;55.932;2024-02-16T06:08:06;103634.41;;;-13.06;32.89
78932;BME280;68331;53.362;55.932;2024-02-16T06:10:33;103637.66;;;-12.73;32.63
78932;BME280;68331;53.362;55.932;2024-02-16T06:12:59;103632.19;;;-11.91;31.54
78932;BME280;68331;53.362;55.932;2024-02-16T06:15:25;103631.56;;;-11.25;30.60
78932;BME280;68331;53.362;55.932;2024-02-16T06:17:52;103626.31;;;-10.74;30.03
78932;BME280;68331;53.362;55.932;2024-02-16T06:20:18;103629.00;;;-10.36;29.48
78932;BME280;68331;53.362;55.932;2024-02-16T06:22:44;103624.66;;;-10.44;29.19
78932;BME280;68331;53.362;55.932;2024-02-16T06:25:09;103623.31;;;-10.63;28.90
78932;BME280;68331;53.362;55.932;2024-02-16T06:27:35;103625.31;;;-10.61;28.82
78932;BME280;68331;53.362;55.932;2024-02-16T06:30:02;103626.09;;;-10.76;29.09
78932;BME280;68331;53.362;55.932;2024-02-16T06:32:30;103622.25;;;-10.72;29.06
78932;BME280;68331;53.362;55.932;2024-02-16T06:34:57;103623.81;;;-10.51;28.76
78932;BME280;68331;53.362;55.932;2024-02-16T06:37:22;103610.09;;;-9.99;28.46
78932;BME280;68331;53.362;55.932;2024-02-16T06:39:48;103609.25;;;-9.84;28.20
78932;BME280;68331;53.362;55.932;2024-02-16T06:42:14;103616.13;;;-9.75;27.69
78932;BME280;68331;53.362;55.932;2024-02-16T06:44:40;103623.00;;;-9.90;28.39
78932;BME280;68331;53.362;55.932;2024-02-16T06:47:06;103622.06;;;-9.29;27.97
78932;BME280;68331;53.362;55.932;2024-02-16T06:49:32;103609.56;;;-9.19;27.43
78932;BME280;68331;53.362;55.932;2024-02-16T06:51:58;103617.56;;;-9.16;27.23
78932;BME280;68331;53.362;55.932;2024-02-16T06:54:24;103614.38;;;-8.66;27.35
78932;BME280;68331;53.362;55.932;2024-02-16T06:56:50;103620.91;;;-8.11;26.50
78932;BME280;68331;53.362;55.932;2024-02-16T06:59:19;103622.88;;;-7.84;25.95
78932;BME280;68331;53.362;55.932;2024-02-16T07:01:45;103620.03;;;-7.28;25.91
78932;BME280;68331;53.362;55.932;2024-02-16T07:04:11;103611.66;;;-7.01;25.48
78932;BME280;68331;53.362;55.932;2024-02-16T07:06:36;103614.09;;;-6.50;25.07
78932;BME280;68331;53.362;55.932;2024-02-16T07:09:02;103580.84;;;-6.75;24.74
78932;BME280;68331;53.362;55.932;2024-02-16T07:11:28;103611.66;;;-6.40;24.79
78932;BME280;68331;53.362;55.932;2024-02-16T07:13:55;103613.44;;;-6.48;24.50
78932;BME280;68331;53.362;55.932;2024-02-16T07:16:20;103617.25;;;-6.53;24.88
78932;BME280;68331;53.362;55.932;2024-02-16T07:18:46;103612.28;;;-6.69;24.98
78932;BME280;68331;53.362;55.932;2024-02-16T07:21:12;103606.53;;;-6.66;25.06
78932;BME280;68331;53.362;55.932;2024-02-16T07:23:38;103605.47;;;-6.60;25.03
78932;BME280;68331;53.362;55.932;2024-02-16T07:26:04;103608.31;;;-7.09;25.04
78932;BME280;68331;53.362;55.932;2024-02-16T07:28:30;103598.19;;;-7.75;25.26
78932;BME280;68331;53.362;55.932;2024-02-16T07:30:57;103613.59;;;-8.00;25.58
78932;BME280;68331;53.362;55.932;2024-02-16T07:33:23;103602.50;;;-8.16;26.53
78932;BME280;68331;53.362;55.932;2024-02-16T07:35:50;103602.06;;;-8.36;26.76
78932;BME280;68331;53.362;55.932;2024-02-16T07:38:17;103607.69;;;-8.56;26.68
78932;BME280;68331;53.362;55.932;2024-02-16T07:40:43;103599.72;;;-8.75;27.02
78932;BME280;68331;53.362;55.932;2024-02-16T07:43:11;103596.28;;;-8.51;26.49
78932;BME280;68331;53.362;55.932;2024-02-16T07:45:37;103589.31;;;-8.77;26.62
78932;BME280;68331;53.362;55.932;2024-02-16T07:48:04;103589.34;;;-10.02;26.97
78932;BME280;68331;53.362;55.932;2024-02-16T07:50:31;103566.38;;;-10.78;28.57
78932;BME280;68331;53.362;55.932;2024-02-16T07:52:57;103616.81;;;-11.27;29.22
78932;BME280;68331;53.362;55.932;2024-02-16T07:55:23;103617.66;;;-11.85;30.29
78932;BME280;68331;53.362;55.932;2024-02-16T07:57:51;103622.56;;;-12.08;30.68
78932;BME280;68331;53.362;55.932;2024-02-16T08:00:17;103619.06;;;-12.16;31.11
78932;BME280;68331;53.362;55.932;2024-02-16T08:02:43;103619.38;;;-12.42;31.05
78932;BME280;68331;53.362;55.932;2024-02-16T08:05:10;103608.38;;;-12.76;31.57
78932;BME280;68331;53.362;55.932;2024-02-16T08:07:41;103604.19;;;-12.83;31.79
78932;BME280;68331;53.362;55.932;2024-02-16T08:10:10;103612.69;;;-12.90;32.52
78932;BME280;68331;53.362;55.932;2024-02-16T08:12:36;103617.78;;;-12.90;32.52
78932;BME280;68331;53.362;55.932;2024-02-16T08:15:05;103589.41;;;-13.07;32.43
78932;BME280;68331;53.362;55.932;2024-02-16T08:17:33;103623.25;;;-12.86;32.64
78932;BME280;68331;53.362;55.932;2024-02-16T08:20:00;103609.13;;;-12.77;32.25
78932;BME280;68331;53.362;55.932;2024-02-16T08:22:25;103602.78;;;-12.67;32.47
78932;BME280;68331;53.362;55.932;2024-02-16T08:24:52;103611.06;;;-12.89;32.15
78932;BME280;68331;53.362;55.932;2024-02-16T08:27:18;103614.56;;;-13.23;32.72
78932;BME280;68331;53.362;55.932;2024-02-16T08:29:44;103595.69;;;-13.25;32.94
78932;BME280;68331;53.362;55.932;2024-02-16T08:32:10;103596.72;;;-13.37;32.78
78932;BME280;68331;53.362;55.932;2024-02-16T08:34:37;103595.63;;;-13.66;33.20
78932;BME280;68331;53.362;55.932;2024-02-16T08:37:04;103601.75;;;-13.71;33.57
78932;BME280;68331;53.362;55.932;2024-02-16T08:39:31;103595.72;;;-13.52;33.92
78932;BME280;68331;53.362;55.932;2024-02-16T08:41:58;103584.28;;;-13.14;34.00
78932;BME280;68331;53.362;55.932;2024-02-16T08:44:24;103578.38;;;-12.86;33.81
78932;BME280;68331;53.362;55.932;2024-02-16T08:46:50;103595.38;;;-12.65;33.66
78932;BME280;68331;53.362;55.932;2024-02-16T08:49:16;103603.88;;;-12.79;33.34
78932;BME280;68331;53.362;55.932;2024-02-16T08:51:43;103597.28;;;-12.84;33.59
78932;BME280;68331;53.362;55.932;2024-02-16T08:54:09;103600.84;;;-12.55;33.67
78932;BME280;68331;53.362;55.932;2024-02-16T08:56:35;103595.06;;;-12.47;33.24
78932;BME280;68331;53.362;55.932;2024-02-16T08:59:02;103594.31;;;-12.38;33.52
78932;BME280;68331;53.362;55.932;2024-02-16T09:01:32;103589.06;;;-12.33;33.38
78932;BME280;68331;53.362;55.932;2024-02-16T09:03:58;103587.75;;;-12.58;33.72
78932;BME280;68331;53.362;55.932;2024-02-16T09:06:24;103600.75;;;-12.76;33.40
78932;BME280;68331;53.362;55.932;2024-02-16T09:08:50;103600.38;;;-12.79;33.70
78932;BME280;68331;53.362;55.932;2024-02-16T09:11:16;103593.72;;;-12.72;33.63
78932;BME280;68331;53.362;55.932;2024-02-16T09:13:42;103589.38;;;-12.66;34.24
78932;BME280;68331;53.362;55.932;2024-02-16T09:16:09;103603.59;;;-12.46;34.14
78932;BME280;68331;53.362;55.932;2024-02-16T09:18:35;103592.50;;;-12.39;33.91
78932;BME280;68331;53.362;55.932;2024-02-16T09:21:03;103587.53;;;-12.74;34.29
78932;BME280;68331;53.362;55.932;2024-02-16T09:23:29;103585.69;;;-12.82;34.27
78932;BME280;68331;53.362;55.932;2024-02-16T09:25:55;103579.72;;;-12.82;34.76
78932;BME280;68331;53.362;55.932;2024-02-16T09:28:21;103588.63;;;-12.65;34.46
78932;BME280;68331;53.362;55.932;2024-02-16T09:30:47;103581.91;;;-12.64;34.04
78932;BME280;68331;53.362;55.932;2024-02-16T09:33:13;103577.41;;;-12.52;34.63
78932;BME280;68331;53.362;55.932;2024-02-16T09:35:42;103573.59;;;-12.56;34.78
78932;BME280;68331;53.362;55.932;2024-02-16T09:38:08;103570.31;;;-12.48;35.00
78932;BME280;68331;53.362;55.932;2024-02-16T09:40:37;103563.59;;;-12.54;35.05
78932;BME280;68331;53.362;55.932;2024-02-16T09:43:03;103570.16;;;-12.56;35.10
78932;BME280;68331;53.362;55.932;2024-02-16T09:45:30;103564.25;;;-12.77;34.86
78932;BME280;68331;53.362;55.932;2024-02-16T09:47:57;103567.34;;;-13.35;35.19
78932;BME280;68331;53.362;55.932;2024-02-16T09:50:24;103568.19;;;-13.76;36.14
78932;BME280;68331;53.362;55.932;2024-02-16T09:52:50;103555.34;;;-13.70;36.03
78932;BME280;68331;53.362;55.932;2024-02-16T09:55:17;103564.53;;;-13.51;36.47
78932;BME280;68331;53.362;55.932;2024-02-16T09:57:43;103556.69;;;-13.25;36.28
78932;BME280;68331;53.362;55.932;2024-02-16T10:00:10;103563.09;;;-13.07;35.75
78932;BME280;68331;53.362;55.932;2024-02-16T10:02:42;103555.41;;;-13.29;35.12
78932;BME280;68331;53.362;55.932;2024-02-16T10:05:12;103563.88;;;-13.43;35.65
78932;BME280;68331;53.362;55.932;2024-02-16T10:07:38;103551.75;;;-13.31;35.86
78932;BME280;68331;53.362;55.932;2024-02-16T10:10:04;103548.06;;;-13.40;35.66
78932;BME280;68331;53.362;55.932;2024-02-16T10:12:30;103557.34;;;-13.33;36.34
78932;BME280;68331;53.362;55.932;2024-02-16T10:14:56;103544.97;;;-12.96;36.54
78932;BME280;68331;53.362;55.932;2024-02-16T10:17:24;103542.28;;;-12.83;35.62
78932;BME280;68331;53.362;55.932;2024-02-16T10:19:59;103510.53;;;-13.43;36.07
78932;BME280;68331;53.362;55.932;2024-02-16T10:22:28;103556.38;;;-13.48;36.70
78932;BME280;68331;53.362;55.932;2024-02-16T10:24:54;103540.56;;;-13.53;36.75
78932;BME280;68331;53.362;55.932;2024-02-16T10:27:20;103548.28;;;-13.39;37.05
78932;BME280;68331;53.362;55.932;2024-02-16T10:29:53;103543.09;;;-13.12;37.71
78932;BME280;68331;53.362;55.932;2024-02-16T10:32:19;103544.41;;;-13.01;36.78
78932;BME280;68331;53.362;55.932;2024-02-16T10:34:47;103535.84;;;-13.08;36.77
78932;BME280;68331;53.362;55.932;2024-02-16T10:37:16;103541.50;;;-12.97;36.97
78932;BME280;68331;53.362;55.932;2024-02-16T10:39:42;103534.81;;;-12.89;36.89
78932;BME280;68331;53.362;55.932;2024-02-16T10:42:11;103536.66;;;-12.74;36.92
78932;BME280;68331;53.362;55.932;2024-02-16T10:44:39;103543.03;;;-12.70;37.38
78932;BME280;68331;53.362;55.932;2024-02-16T10:47:08;103529.63;;;-12.62;37.31
78932;BME280;68331;53.362;55.932;2024-02-16T10:49:34;103538.53;;;-12.66;37.06
78932;BME280;68331;53.362;55.932;2024-02-16T10:52:00;103541.59;;;-12.75;37.42
78932;BME280;68331;53.362;55.932;2024-02-16T10:54:32;103502.25;;;-13.20;37.91
78932;BME280;68331;53.362;55.932;2024-02-16T10:56:59;103534.56;;;-13.05;38.19
78932;BME280;68331;53.362;55.932;2024-02-16T10:59:25;103545.09;;;-13.09;38.51
78932;BME280;68331;53.362;55.932;2024-02-16T11:02:02;103547.47;;;-13.10;38.41
78932;BME280;68331;53.362;55.932;2024-02-16T11:04:37;103553.91;;;-13.34;38.51
78932;BME280;68331;53.362;55.932;2024-02-16T11:07:16;103554.31;;;-13.65;39.22
78932;BME280;68331;53.362;55.932;2024-02-16T11:09:43;103555.22;;;-13.65;39.46
78932;BME280;68331;53.362;55.932;2024-02-16T11:12:12;103556.50;;;-13.61;39.16
78932;BME280;68331;53.362;55.932;2024-02-16T11:14:40;103559.06;;;-13.54;39.33
78932;BME280;68331;53.362;55.932;2024-02-16T11:17:14;103546.31;;;-13.68;38.93
78932;BME280;68331;53.362;55.932;2024-02-16T11:19:43;103556.06;;;-13.71;39.32
78932;BME280;68331;53.362;55.932;2024-02-16T11:22:10;103557.38;;;-13.68;39.03
78932;BME280;68331;53.362;55.932;2024-02-16T11:24:45;103542.28;;;-13.73;39.16
78932;BME280;68331;53.362;55.932;2024-02-16T11:27:12;103560.13;;;-13.59;39.53
78932;BME280;68331;53.362;55.932;2024-02-16T11:29:39;103539.25;;;-13.64;39.33
78932;BME280;68331;53.362;55.932;2024-02-16T11:32:06;103557.78;;;-13.57;39.58
78932;BME280;68331;53.362;55.932;2024-02-16T11:34:33;103550.06;;;-13.45;39.52
78932;BME280;68331;53.362;55.932;2024-02-16T11:37:00;103565.53;;;-13.36;39.05
78932;BME280;68331;53.362;55.932;2024-02-16T11:39:27;103549.72;;;-13.33;39.12
78932;BME280;68331;53.362;55.932;2024-02-16T11:44:33;103550.28;;;-13.36;39.06
78932;BME280;68331;53.362;55.932;2024-02-16T11:47:03;103561.47;;;-13.48;39.15
78932;BME280;68331;53.362;55.932;2024-02-16T11:49:30;103548.53;;;-13.57;39.44
78932;BME280;68331;53.362;55.932;2024-02-16T11:51:58;103530.59;;;-13.86;39.94
78932;BME280;68331;53.362;55.932;2024-02-16T11:54:25;103553.91;;;-13.68;39.78
78932;BME280;68331;53.362;55.932;2024-02-16T11:56:52;103574.44;;;-13.60;40.36
78932;BME280;68331;53.362;55.932;2024-02-16T11:59:21;103563.72;;;-13.64;40.32
78932;BME280;68331;53.362;55.932;2024-02-16T12:01:55;103574.94;;;-13.69;40.83
78932;BME280;68331;53.362;55.932;2024-02-16T12:04:26;103575.63;;;-13.97;40.53
78932;BME280;68331;53.362;55.932;2024-02-16T12:06:55;103571.53;;;-14.30;41.08
78932;BME280;68331;53.362;55.932;2024-02-16T12:09:22;103556.22;;;-14.44;41.86
78932;BME280;68331;53.362;55.932;2024-02-16T12:11:48;103570.53;;;-14.44;41.71
78932;BME280;68331;53.362;55.932;2024-02-16T12:14:16;103523.34;;;-14.77;42.02
78932;BME280;68331;53.362;55.932;2024-02-16T12:16:47;103566.59;;;-14.75;41.55
78932;BME280;68331;53.362;55.932;2024-02-16T12:19:13;103573.44;;;-14.94;42.21
78932;BME280;68331;53.362;55.932;2024-02-16T12:21:39;103574.59;;;-15.05;43.03
78932;BME280;68331;53.362;55.932;2024-02-16T12:24:06;103565.72;;;-15.21;43.67
78932;BME280;68331;53.362;55.932;2024-02-16T12:26:32;103569.75;;;-15.16;43.73
78932;BME280;68331;53.362;55.932;2024-02-16T12:28:57;103561.53;;;-15.08;43.60
78932;BME280;68331;53.362;55.932;2024-02-16T12:31:23;103562.94;;;-15.10;43.61